Time;durP1;ratioP1;P1;durP2;ratioP2;P2;SDS_P1;SDS_P2;PMS_P1;PMS_P2;Temp;Humidity;BMP_temperature;BMP_pressure;BME280_temperature;BME280_humidity;BME280_pressure;Samples;Min_cycle;Max_cycle;Signal;HPM_P1;HPM_P2
2020/12/23 00:00:34;;;;;;;;;;;;;;;-8.56;87.84;102150.87;1855601;77;20137;-35
2020/12/23 00:03:04;;;;;;;;;;;;;;;-8.55;87.90;102145.92;1855303;76;20133;-36
2020/12/23 00:05:31;;;;;;;;;;;;;;;-8.51;87.97;102139.03;1855501;77;20152;-36
2020/12/23 00:07:59;;;;;;;;;;;;;;;-8.49;87.91;102141.33;1855514;77;20154;-35
2020/12/23 00:10:27;;;;;;;;;;;;;;;-8.49;87.88;102131.16;1855631;77;20154;-36
2020/12/23 00:12:55;;;;;;;;;;;;;;;-8.50;87.88;102130.65;1855573;77;20178;-35
2020/12/23 00:15:23;;;;;;;;;;;;;;;-8.51;87.93;102121.23;1855688;77;20142;-35
2020/12/23 00:17:50;;;;;;;;;;;;;;;-8.52;87.90;102121.11;1855614;77;20273;-34
2020/12/23 00:20:19;;;;;;;;;;;;;;;-8.53;87.92;102124.03;1855827;77;20286;-35
2020/12/23 00:22:47;;;;;;;;;;;;;;;-8.55;87.91;102125.58;1855868;77;20131;-35
2020/12/23 00:25:14;;;;;;;;;;;;;;;-8.57;87.91;102122.39;1855576;77;20178;-36
2020/12/23 00:27:42;;;;;;;;;;;;;;;-8.58;87.96;102120.61;1855877;77;20163;-36
2020/12/23 00:30:15;;;;;;;;;;;;;;;-8.56;88.02;102127.61;1855616;77;20288;-36
2020/12/23 00:32:41;;;;;;;;;;;;;;;-8.54;88.03;102129.91;1855864;77;20150;-35
2020/12/23 00:35:08;;;;;;;;;;;;;;;-8.51;88.02;102131.41;1855552;77;20233;-35
2020/12/23 00:37:37;;;;;;;;;;;;;;;-8.52;87.98;102131.27;1855840;77;20202;-35
2020/12/23 00:40:05;;;;;;;;;;;;;;;-8.52;88.02;102130.89;1855681;77;20178;-36
2020/12/23 00:42:33;;;;;;;;;;;;;;;-8.50;88.11;102133.19;1855562;77;20135;-36
2020/12/23 00:45:01;;;;;;;;;;;;;;;-8.47;88.11;102123.25;1855507;77;20354;-36
2020/12/23 00:47:29;;;;;;;;;;;;;;;-8.46;88.11;102125.42;1855532;77;20202;-35
2020/12/23 00:49:57;;;;;;;;;;;;;;;-8.46;88.04;102126.31;1855588;77;20150;-36
2020/12/23 00:52:25;;;;;;;;;;;;;;;-8.48;88.03;102113.88;1855659;77;20801;-35
2020/12/23 00:54:52;;;;;;;;;;;;;;;-8.47;88.07;102116.05;1855838;77;20400;-36
2020/12/23 00:57:22;;;;;;;;;;;;;;;-8.48;88.05;102112.98;1855160;77;20150;-36
2020/12/23 00:59:50;;;;;;;;;;;;;;;-8.47;88.04;102114.36;1855834;77;20186;-35
2020/12/23 01:02:18;;;;;;;;;;;;;;;-8.47;87.99;102101.64;1855488;77;20187;-36
2020/12/23 01:04:45;;;;;;;;;;;;;;;-8.49;88.02;102096.84;1855793;77;20183;-35
2020/12/23 01:07:13;;;;;;;;;;;;;;;-8.48;87.99;102098.63;1855777;77;20158;-34
2020/12/23 01:09:41;;;;;;;;;;;;;;;-8.50;87.94;102098.88;1855613;77;20142;-35
2020/12/23 01:12:08;;;;;;;;;;;;;;;-8.51;87.97;102102.17;1855424;77;20241;-35
2020/12/23 01:14:36;;;;;;;;;;;;;;;-8.50;87.97;102093.78;1855441;77;20123;-37
2020/12/23 01:17:03;;;;;;;;;;;;;;;-8.48;87.97;102088.84;1855410;77;20229;-36
2020/12/23 01:19:32;;;;;;;;;;;;;;;-8.48;87.98;102088.45;1855579;77;20115;-35
2020/12/23 01:22:00;;;;;;;;;;;;;;;-8.46;88.00;102091.98;1855639;77;20424;-35
2020/12/23 01:24:28;;;;;;;;;;;;;;;-8.46;87.99;102089.44;1855816;77;20173;-34
2020/12/23 01:26:55;;;;;;;;;;;;;;;-8.44;87.98;102092.13;1855502;77;20190;-35
2020/12/23 01:29:23;;;;;;;;;;;;;;;-8.44;87.95;102089.95;1855776;77;20139;-37
2020/12/23 01:31:51;;;;;;;;;;;;;;;-8.43;87.93;102082.84;1855597;77;20396;-34
2020/12/23 01:34:19;;;;;;;;;;;;;;;-8.43;87.87;102082.84;1855680;77;20433;-33
2020/12/23 01:36:50;;;;;;;;;;;;;;;-8.47;87.82;102072.41;1855461;77;20134;-36
2020/12/23 01:39:18;;;;;;;;;;;;;;;-8.47;87.75;102082.58;1855708;77;20136;-34
2020/12/23 01:41:46;;;;;;;;;;;;;;;-8.47;87.74;102082.98;1855412;77;20135;-36
2020/12/23 01:44:13;;;;;;;;;;;;;;;-8.47;87.74;102080.45;1855678;77;20143;-34
2020/12/23 01:46:41;;;;;;;;;;;;;;;-8.48;87.67;102083.38;1855569;77;20222;-36
2020/12/23 01:49:09;;;;;;;;;;;;;;;-8.50;87.64;102089.08;1855713;77;20150;-35
2020/12/23 01:51:37;;;;;;;;;;;;;;;-8.49;87.66;102084.13;1855583;77;20198;-35
2020/12/23 01:54:05;;;;;;;;;;;;;;;-8.47;87.62;102076.22;1855723;77;20181;-36
2020/12/23 01:56:33;;;;;;;;;;;;;;;-8.43;87.63;102081.19;1855434;77;20155;-36
2020/12/23 01:59:00;;;;;;;;;;;;;;;-8.40;87.61;102070.39;1832537;77;20163;-35
2020/12/23 02:01:28;;;;;;;;;;;;;;;-8.39;87.56;102068.33;1855683;77;20143;-35
2020/12/23 02:03:55;;;;;;;;;;;;;;;-8.37;87.58;102061.34;1819294;77;20163;-35
2020/12/23 02:06:24;;;;;;;;;;;;;;;-8.35;87.51;102062.36;1855714;77;20159;-35
2020/12/23 02:08:51;;;;;;;;;;;;;;;-8.36;87.43;102054.22;1855696;77;20134;-35
2020/12/23 02:11:19;;;;;;;;;;;;;;;-8.38;87.36;102054.47;1855394;77;20194;-36
2020/12/23 02:13:48;;;;;;;;;;;;;;;-8.38;87.34;102053.58;1855789;77;20134;-37
2020/12/23 02:16:16;;;;;;;;;;;;;;;-8.40;87.33;102052.59;1855469;77;20190;-35
2020/12/23 02:18:44;;;;;;;;;;;;;;;-8.41;87.34;102053.35;1855716;77;20139;-36
2020/12/23 02:21:13;;;;;;;;;;;;;;;-8.42;87.35;102047.37;1852021;77;20131;-35
2020/12/23 02:26:51;;;;;;;;;;;;;;;-8.35;87.42;102043.67;1919391;74;20284;-35
2020/12/23 02:29:18;;;;;;;;;;;;;;;-8.40;87.38;102042.42;1851895;75;20213;-35
2020/12/23 02:31:46;;;;;;;;;;;;;;;-8.40;87.35;102036.06;1902965;75;20120;-35
2020/12/23 02:34:15;;;;;;;;;;;;;;;-8.42;87.32;102039.75;1891693;75;20221;-35
2020/12/23 02:36:43;;;;;;;;;;;;;;;-8.44;87.38;102034.91;1867998;77;20225;-35
2020/12/23 02:39:11;;;;;;;;;;;;;;;-8.41;87.40;102039.37;1868043;77;20218;-35
2020/12/23 02:41:39;;;;;;;;;;;;;;;-8.41;87.36;102035.55;1867854;77;20138;-36
2020/12/23 02:44:07;;;;;;;;;;;;;;;-8.41;87.42;102036.45;1867910;77;20234;-35
2020/12/23 02:46:35;;;;;;;;;;;;;;;-8.40;87.44;102036.92;1868097;77;20229;-35
2020/12/23 02:49:02;;;;;;;;;;;;;;;-8.38;87.42;102030.70;1867974;77;20158;-34
2020/12/23 02:51:30;;;;;;;;;;;;;;;-8.38;87.43;102030.31;1868083;77;20448;-34
2020/12/23 02:53:58;;;;;;;;;;;;;;;-8.38;87.42;102031.59;1867863;77;20155;-35
2020/12/23 02:56:26;;;;;;;;;;;;;;;-8.38;87.39;102029.05;1867938;77;20380;-35
2020/12/23 02:58:53;;;;;;;;;;;;;;;-8.36;87.40;102027.52;1867984;77;20134;-35
2020/12/23 03:01:21;;;;;;;;;;;;;;;-8.37;87.37;102023.20;1867942;77;20150;-35
2020/12/23 03:03:49;;;;;;;;;;;;;;;-8.37;87.42;102017.22;1883599;75;20233;-35
2020/12/23 03:06:17;;;;;;;;;;;;;;;-8.37;87.39;102025.73;1867908;77;20122;-35
2020/12/23 03:08:44;;;;;;;;;;;;;;;-8.38;87.40;102017.98;1867936;77;20277;-35
2020/12/23 03:11:12;;;;;;;;;;;;;;;-8.37;87.39;102023.58;1867901;77;20174;-34
2020/12/23 03:13:41;;;;;;;;;;;;;;;-8.36;87.39;102025.36;1868079;77;20419;-34
2020/12/23 03:16:08;;;;;;;;;;;;;;;-8.37;87.39;102018.11;1867983;77;20143;-35
2020/12/23 03:18:36;;;;;;;;;;;;;;;-8.36;87.42;102015.19;1868222;77;20150;-35
2020/12/23 03:21:04;;;;;;;;;;;;;;;-8.36;87.38;102013.53;1867880;77;20143;-35
2020/12/23 03:23:31;;;;;;;;;;;;;;;-8.36;87.36;102012.64;1867878;77;20123;-35
2020/12/23 03:25:59;;;;;;;;;;;;;;;-8.36;87.39;102006.29;1868071;77;20122;-33
2020/12/23 03:28:27;;;;;;;;;;;;;;;-8.35;87.36;102006.80;1868156;77;20150;-35
2020/12/23 03:30:54;;;;;;;;;;;;;;;-8.35;87.30;102011.50;1868108;77;20529;-35
2020/12/23 03:33:22;;;;;;;;;;;;;;;-8.36;87.34;102001.20;1867982;77;20134;-35
2020/12/23 03:35:50;;;;;;;;;;;;;;;-8.35;87.35;101998.78;1867786;77;20181;-36
2020/12/23 03:38:17;;;;;;;;;;;;;;;-8.35;87.34;102000.06;1867385;77;20162;-35
2020/12/23 03:40:45;;;;;;;;;;;;;;;-8.36;87.37;102003.36;1867226;77;20280;-36
2020/12/23 03:43:13;;;;;;;;;;;;;;;-8.35;87.38;102000.06;1867538;77;20166;-36
2020/12/23 03:45:40;;;;;;;;;;;;;;;-8.36;87.39;102007.18;1867193;77;20262;-35
2020/12/23 03:48:08;;;;;;;;;;;;;;;-8.36;87.40;102012.64;1867214;77;20214;-33
2020/12/23 03:50:36;;;;;;;;;;;;;;;-8.37;87.41;102018.11;1867395;77;20123;-34
2020/12/23 03:53:03;;;;;;;;;;;;;;;-8.35;87.45;102016.97;1867551;77;20154;-36
2020/12/23 03:55:31;;;;;;;;;;;;;;;-8.36;87.47;102015.19;1867374;77;20256;-35
2020/12/23 03:57:58;;;;;;;;;;;;;;;-8.35;87.48;102014.42;1867175;77;20150;-36
2020/12/23 04:00:26;;;;;;;;;;;;;;;-8.33;87.50;102012.48;1867383;77;20250;-36
2020/12/23 04:02:54;;;;;;;;;;;;;;;-8.31;87.55;102002.45;1867232;77;20182;-35
2020/12/23 04:05:24;;;;;;;;;;;;;;;-8.30;87.56;102009.31;1866427;77;20135;-35
2020/12/23 04:07:51;;;;;;;;;;;;;;;-8.29;87.58;102004.70;1867303;77;20130;-35
2020/12/23 04:10:20;;;;;;;;;;;;;;;-8.27;87.60;102015.90;1867463;77;20269;-34
2020/12/23 04:12:47;;;;;;;;;;;;;;;-8.28;87.59;102011.57;1869022;75;20142;-34
2020/12/23 04:15:15;;;;;;;;;;;;;;;-8.28;87.65;102011.19;1867228;77;20286;-35
2020/12/23 04:17:43;;;;;;;;;;;;;;;-8.26;87.67;102004.92;1894998;75;20152;-35
2020/12/23 04:20:11;;;;;;;;;;;;;;;-8.25;87.73;102007.60;1895030;75;20146;-35
2020/12/23 04:22:39;;;;;;;;;;;;;;;-8.26;87.71;102007.09;1867270;77;20133;-35
2020/12/23 04:25:07;;;;;;;;;;;;;;;-8.26;87.75;102010.02;1869837;75;20135;-34
2020/12/23 04:27:36;;;;;;;;;;;;;;;-8.24;87.79;102013.58;1867562;77;20394;-36
2020/12/23 04:30:06;;;;;;;;;;;;;;;-8.21;87.82;102014.73;1867811;75;20228;-35
2020/12/23 04:32:34;;;;;;;;;;;;;;;-8.18;87.84;102016.22;1867496;76;20122;-34
2020/12/23 04:35:03;;;;;;;;;;;;;;;-8.14;87.85;102014.41;1867458;76;20245;-36
2020/12/23 04:37:33;;;;;;;;;;;;;;;-8.16;87.81;102021.44;1867165;77;20186;-36
2020/12/23 04:40:01;;;;;;;;;;;;;;;-8.19;87.82;102017.36;1874986;75;20471;-36
2020/12/23 04:42:29;;;;;;;;;;;;;;;-8.21;87.84;102022.36;1881439;75;20236;-36
2020/12/23 04:45:00;;;;;;;;;;;;;;;-8.21;87.90;102018.55;1868359;75;20390;-37
2020/12/23 04:47:29;;;;;;;;;;;;;;;-8.19;87.98;102018.64;1867074;77;20771;-37
2020/12/23 04:49:57;;;;;;;;;;;;;;;-8.20;87.98;102020.67;1862350;75;20150;-37
2020/12/23 04:52:34;;;;;;;;;;;;;;;-8.19;87.99;102022.45;1867753;77;20178;-37
2020/12/23 04:55:04;;;;;;;;;;;;;;;-8.16;88.00;102018.52;1867373;77;20396;-38
2020/12/23 04:57:35;;;;;;;;;;;;;;;-8.15;87.98;102011.77;1867381;77;20178;-37
2020/12/23 05:00:05;;;;;;;;;;;;;;;-8.15;87.96;102016.48;1867478;77;20190;-35
2020/12/23 05:02:33;;;;;;;;;;;;;;;-8.18;87.98;102008.59;1867411;77;20253;-37
2020/12/23 05:05:03;;;;;;;;;;;;;;;-8.15;87.97;102015.59;1862315;77;20850;-38
2020/12/23 05:07:38;;;;;;;;;;;;;;;-8.15;87.96;102007.58;1866888;75;20478;-37
2020/12/23 05:10:06;;;;;;;;;;;;;;;-8.14;87.99;102009.32;1870366;75;20140;-36
2020/12/23 05:12:35;;;;;;;;;;;;;;;-8.15;87.96;102011.77;1883516;75;20175;-34
2020/12/23 05:15:07;;;;;;;;;;;;;;;-8.15;88.01;102018.12;1886038;75;20370;-37
2020/12/23 05:17:37;;;;;;;;;;;;;;;-8.14;87.98;102018.64;1872050;75;20149;-36
2020/12/23 05:20:05;;;;;;;;;;;;;;;-8.15;87.98;102012.66;1854335;75;20445;-39
2020/12/23 05:22:34;;;;;;;;;;;;;;;-8.13;88.03;102010.21;1869463;75;20137;-43
2020/12/23 05:25:02;;;;;;;;;;;;;;;-8.13;88.03;102006.40;1867492;75;20194;-37
2020/12/23 05:27:33;;;;;;;;;;;;;;;-8.11;88.07;102010.85;1868301;75;20195;-38
2020/12/23 05:30:02;;;;;;;;;;;;;;;-8.10;88.08;102007.55;1882134;75;20467;-37
2020/12/23 05:32:39;;;;;;;;;;;;;;;-8.08;88.14;102007.29;1857663;77;20142;-36
2020/12/23 05:35:11;;;;;;;;;;;;;;;-8.05;88.13;102006.24;1839524;77;20133;-34
2020/12/23 05:37:41;;;;;;;;;;;;;;;-8.03;88.15;102002.55;1868739;75;20160;-36
2020/12/23 05:40:12;;;;;;;;;;;;;;;-7.99;88.16;101994.76;1873363;75;20197;-45
2020/12/23 05:42:41;;;;;;;;;;;;;;;-7.99;88.11;102004.94;1869842;75;20932;-38
2020/12/23 05:45:09;;;;;;;;;;;;;;;-7.99;88.11;102002.01;1845479;75;20288;-36
2020/12/23 05:47:38;;;;;;;;;;;;;;;-7.98;88.14;101998.70;1869243;75;20199;-38
2020/12/23 05:50:08;;;;;;;;;;;;;;;-7.96;88.15;101998.45;1866832;75;20185;-36
2020/12/23 05:52:36;;;;;;;;;;;;;;;-7.95;88.10;101995.14;1868196;75;20413;-37
2020/12/23 05:55:16;;;;;;;;;;;;;;;-7.96;88.08;101993.36;1870421;75;20277;-38
2020/12/23 05:57:44;;;;;;;;;;;;;;;-7.95;88.11;101991.70;1871480;75;20407;-37
2020/12/23 06:00:12;;;;;;;;;;;;;;;-7.93;88.09;101992.30;1868310;75;20178;-38
2020/12/23 06:02:47;;;;;;;;;;;;;;;-7.93;88.03;101997.77;1867584;75;20435;-38
2020/12/23 06:05:20;;;;;;;;;;;;;;;-7.93;88.04;101991.41;1866375;75;20338;-37
2020/12/23 06:07:51;;;;;;;;;;;;;;;-7.92;88.03;101988.11;1871345;75;20229;-39
2020/12/23 06:10:19;;;;;;;;;;;;;;;-7.92;88.03;101994.09;1866332;77;20279;-36
2020/12/23 06:12:48;;;;;;;;;;;;;;;-7.91;88.01;101995.87;1855691;75;20424;-37
2020/12/23 06:15:18;;;;;;;;;;;;;;;-7.87;88.03;102004.61;1870821;75;20470;-38
2020/12/23 06:17:46;;;;;;;;;;;;;;;-7.83;88.04;102000.28;1860933;76;20327;-38
2020/12/23 06:20:14;;;;;;;;;;;;;;;-7.79;88.04;102005.72;1871285;75;20237;-39
2020/12/23 06:22:45;;;;;;;;;;;;;;;-7.75;87.97;102013.22;1841579;75;20240;-39
2020/12/23 06:26:54;;;;;;;;;;;;;;;-7.67;87.96;102005.77;1910088;74;20363;-39
2020/12/23 06:29:24;;;;;;;;;;;;;;;-7.64;87.87;102012.38;1869432;75;20230;-38
2020/12/23 06:31:59;;;;;;;;;;;;;;;-7.53;87.68;102004.28;1866592;75;20123;-38
2020/12/23 06:34:28;;;;;;;;;;;;;;;-7.50;87.58;102010.89;1872845;75;20327;-37
2020/12/23 06:36:56;;;;;;;;;;;;;;;-7.50;87.53;102011.78;1877221;75;20120;-39
2020/12/23 06:39:36;;;;;;;;;;;;;;;-7.49;87.53;102012.29;1872745;75;20221;-38
2020/12/23 06:42:29;;;;;;;;;;;;;;;-7.43;87.45;102016.95;1893175;74;20160;-38
2020/12/23 06:45:07;;;;;;;;;;;;;;;-7.50;87.40;102009.63;1868677;75;20134;-38
2020/12/23 06:47:36;;;;;;;;;;;;;;;-7.53;87.37;102020.45;1871300;75;20172;-39
2020/12/23 06:50:15;;;;;;;;;;;;;;;-7.49;87.45;102017.38;1846409;75;20136;-39
2020/12/23 06:52:45;;;;;;;;;;;;;;;-7.44;87.49;102017.72;1873586;75;20162;-39
2020/12/23 06:55:14;;;;;;;;;;;;;;;-7.39;87.47;102010.92;1873334;75;20451;-39
2020/12/23 06:57:46;;;;;;;;;;;;;;;-7.35;87.40;102014.20;1836655;75;20204;-39
2020/12/23 07:00:24;;;;;;;;;;;;;;;-7.34;87.30;102006.17;1868956;75;20328;-39
2020/12/23 07:02:59;;;;;;;;;;;;;;;-7.31;87.33;102004.77;1869335;75;20268;-39
2020/12/23 07:05:31;;;;;;;;;;;;;;;-7.28;87.25;102007.52;1871191;75;20305;-40
2020/12/23 07:08:05;;;;;;;;;;;;;;;-7.26;87.18;102006.37;1873187;75;20178;-38
2020/12/23 07:10:36;;;;;;;;;;;;;;;-7.28;87.08;101998.61;1866737;75;20284;-40
2020/12/23 07:13:07;;;;;;;;;;;;;;;-7.29;87.03;101992.15;1879473;75;20234;-39
2020/12/23 07:15:36;;;;;;;;;;;;;;;-7.26;87.10;101991.97;1870641;75;20176;-38
2020/12/23 07:18:08;;;;;;;;;;;;;;;-7.18;87.19;101991.28;1869156;75;20176;-40
2020/12/23 07:21:04;;;;;;;;;;;;;;;-7.07;87.23;102003.53;1879919;75;20598;-40
2020/12/23 07:23:58;;;;;;;;;;;;;;;-6.95;87.05;102000.23;1888490;74;20464;-37
2020/12/23 07:26:26;;;;;;;;;;;;;;;-6.93;86.95;102000.34;1831828;76;20487;-38
2020/12/23 07:28:54;;;;;;;;;;;;;;;-6.91;86.79;101993.71;1872301;75;20496;-38
2020/12/23 07:31:21;;;;;;;;;;;;;;;-6.86;86.74;101993.27;1868150;75;20134;-40
2020/12/23 07:33:49;;;;;;;;;;;;;;;-6.82;86.55;102002.40;1878012;75;20163;-37
2020/12/23 07:36:17;;;;;;;;;;;;;;;-6.88;86.32;101993.53;1876378;75;20237;-37
2020/12/23 07:38:45;;;;;;;;;;;;;;;-6.87;86.28;101991.48;1876536;75;20191;-39
2020/12/23 07:41:12;;;;;;;;;;;;;;;-6.80;86.29;101992.83;1869234;75;20207;-40
2020/12/23 07:43:40;;;;;;;;;;;;;;;-6.76;86.16;101987.16;1874338;75;20475;-40
2020/12/23 07:46:08;;;;;;;;;;;;;;;-6.71;86.15;101995.17;1868785;75;20182;-39
2020/12/23 07:48:37;;;;;;;;;;;;;;;-6.67;86.02;101990.78;1876983;75;20213;-39
2020/12/23 07:51:05;;;;;;;;;;;;;;;-6.60;86.04;101989.17;1867810;75;20272;-38
2020/12/23 07:53:32;;;;;;;;;;;;;;;-6.54;85.92;101985.41;1831472;75;20190;-39
2020/12/23 07:56:01;;;;;;;;;;;;;;;-6.57;85.69;101976.66;1871495;75;20293;-39
2020/12/23 07:58:30;;;;;;;;;;;;;;;-6.54;85.73;101975.59;1872151;75;20412;-38
2020/12/23 08:00:57;;;;;;;;;;;;;;;-6.47;85.71;101965.94;1877106;75;20377;-38
2020/12/23 08:03:33;;;;;;;;;;;;;;;-6.35;85.79;101963.38;1867982;75;20146;-41
2020/12/23 08:06:11;;;;;;;;;;;;;;;-6.22;85.70;101960.02;1871380;75;20327;-44
2020/12/23 08:08:40;;;;;;;;;;;;;;;-6.18;85.42;101951.82;1874153;75;20177;-43
2020/12/23 08:11:12;;;;;;;;;;;;;;;-6.20;85.19;101954.25;1874757;75;20435;-42
2020/12/23 08:13:41;;;;;;;;;;;;;;;-6.23;84.99;101946.38;1836561;75;20274;-41
2020/12/23 08:16:11;;;;;;;;;;;;;;;-6.22;84.96;101949.81;1869269;75;20202;-41
2020/12/23 08:18:39;;;;;;;;;;;;;;;-6.16;84.96;101952.79;1871566;75;20223;-42
2020/12/23 08:21:12;;;;;;;;;;;;;;;-6.08;85.02;101950.00;1873506;75;20186;-41
2020/12/23 08:23:40;;;;;;;;;;;;;;;-5.95;84.90;101944.47;1877263;75;20207;-43
2020/12/23 08:26:10;;;;;;;;;;;;;;;-5.92;84.77;101940.87;1836608;75;20469;-42
2020/12/23 08:28:46;;;;;;;;;;;;;;;-5.83;84.79;101938.50;1869900;75;20181;-40
2020/12/23 08:31:20;;;;;;;;;;;;;;;-5.76;84.69;101919.38;1877407;75;20217;-39
2020/12/23 08:33:50;;;;;;;;;;;;;;;-5.71;84.49;101924.02;1824532;75;20207;-39
2020/12/23 08:36:20;;;;;;;;;;;;;;;-5.63;84.39;101913.05;1848193;75;21265;-39
2020/12/23 08:38:49;;;;;;;;;;;;;;;-5.62;84.05;101913.55;1874484;75;20183;-39
2020/12/23 08:41:18;;;;;;;;;;;;;;;-5.62;83.86;101908.44;1807490;77;20240;-40
2020/12/23 08:43:48;;;;;;;;;;;;;;;-5.62;83.80;101904.59;1805687;77;20158;-39
2020/12/23 08:46:22;;;;;;;;;;;;;;;-5.53;83.82;101900.51;1790828;77;20463;-40
2020/12/23 08:48:53;;;;;;;;;;;;;;;-5.40;83.82;101895.04;1819164;77;20185;-39
2020/12/23 08:51:22;;;;;;;;;;;;;;;-5.31;83.62;101898.18;1816974;78;20430;-39
2020/12/23 08:53:54;;;;;;;;;;;;;;;-5.19;83.52;101895.58;1802710;78;20227;-39
2020/12/23 08:56:28;;;;;;;;;;;;;;;-5.12;83.23;101891.74;1794658;79;20182;-39
2020/12/23 08:59:05;;;;;;;;;;;;;;;-5.12;82.87;101890.05;1802028;78;20252;-48
2020/12/23 09:01:35;;;;;;;;;;;;;;;-5.11;82.82;101885.81;1807535;77;20209;-40
2020/12/23 09:04:04;;;;;;;;;;;;;;;-5.05;82.62;101884.55;1829016;77;20202;-39
2020/12/23 09:06:33;;;;;;;;;;;;;;;-5.00;82.49;101881.91;1836932;77;20232;-38
2020/12/23 09:09:17;;;;;;;;;;;;;;;-5.02;82.35;101880.03;1830497;77;20178;-40
2020/12/23 09:11:54;;;;;;;;;;;;;;;-4.96;82.46;101879.15;1811496;77;20192;-40
2020/12/23 09:14:34;;;;;;;;;;;;;;;-4.83;82.49;101885.54;1833822;77;20293;-40
2020/12/23 09:17:14;;;;;;;;;;;;;;;-4.68;82.26;101883.96;1830027;77;20183;-40
2020/12/23 09:19:44;;;;;;;;;;;;;;;-4.55;81.99;101890.34;1791145;79;20239;-40
2020/12/23 09:22:25;;;;;;;;;;;;;;;-4.34;81.79;101882.23;1804504;78;20591;-39
2020/12/23 09:24:53;;;;;;;;;;;;;;;-4.22;81.27;101871.47;1824734;77;20178;-39
2020/12/23 09:27:23;;;;;;;;;;;;;;;-4.08;80.76;101872.80;1827703;77;20441;-38
2020/12/23 09:29:52;;;;;;;;;;;;;;;-3.94;80.38;101873.64;1828374;77;20233;-40
2020/12/23 09:32:21;;;;;;;;;;;;;;;-3.77;79.86;101872.07;1805760;77;20239;-39
2020/12/23 09:34:51;;;;;;;;;;;;;;;-3.79;79.01;101874.92;1827384;77;20285;-39
2020/12/23 09:37:29;;;;;;;;;;;;;;;-3.86;78.69;101872.78;1825759;77;20243;-37
2020/12/23 09:39:58;;;;;;;;;;;;;;;-3.92;78.47;101863.45;1828355;77;20301;-37
2020/12/23 09:42:26;;;;;;;;;;;;;;;-3.97;78.35;101864.86;1824787;77;20193;-40
2020/12/23 09:44:58;;;;;;;;;;;;;;;-4.11;78.12;101866.59;1775697;77;20201;-37
2020/12/23 09:47:33;;;;;;;;;;;;;;;-4.20;78.40;101860.51;1788280;77;20176;-38
2020/12/23 09:50:04;;;;;;;;;;;;;;;-4.19;78.50;101858.83;1790810;77;20471;-39
2020/12/23 09:52:40;;;;;;;;;;;;;;;-4.24;78.66;101853.45;1767312;77;20250;-40
2020/12/23 09:55:22;;;;;;;;;;;;;;;-4.24;78.70;101853.84;1750164;77;20216;-40
2020/12/23 09:57:51;;;;;;;;;;;;;;;-4.30;78.91;101852.19;1803826;77;20191;-39
2020/12/23 10:00:20;;;;;;;;;;;;;;;-4.35;79.06;101850.63;1827300;77;20307;-40
2020/12/23 10:02:47;;;;;;;;;;;;;;;-4.35;79.20;101842.06;1826542;77;20299;-39
2020/12/23 10:05:15;;;;;;;;;;;;;;;-4.26;79.43;101840.94;1827739;77;20191;-39
2020/12/23 10:07:45;;;;;;;;;;;;;;;-4.17;79.50;101841.90;1792057;79;20173;-39
2020/12/23 10:10:14;;;;;;;;;;;;;;;-4.06;79.48;101844.70;1797604;79;20225;-39
2020/12/23 10:12:41;;;;;;;;;;;;;;;-4.02;79.26;101842.83;1809826;78;20156;-40
2020/12/23 10:15:11;;;;;;;;;;;;;;;-4.05;79.14;101836.23;1808284;78;20210;-39
2020/12/23 10:17:38;;;;;;;;;;;;;;;-4.05;79.06;101834.95;1806867;78;20281;-39
2020/12/23 10:20:07;;;;;;;;;;;;;;;-4.20;78.97;101832.34;1811935;78;20283;-39
2020/12/23 10:22:36;;;;;;;;;;;;;;;-4.23;79.18;101836.41;1812651;78;20815;-40
2020/12/23 10:26:52;;;;;;;;;;;;;;;-4.17;79.47;101835.50;1893084;74;20327;-38
2020/12/23 10:29:20;;;;;;;;;;;;;;;-4.19;79.40;101830.67;1866264;75;20469;-39
2020/12/23 10:31:47;;;;;;;;;;;;;;;-4.30;79.46;101832.59;1867116;75;20190;-41
2020/12/23 10:34:15;;;;;;;;;;;;;;;-4.29;79.78;101827.97;1866880;75;20217;-37
2020/12/23 10:36:45;;;;;;;;;;;;;;;-4.22;79.84;101829.22;1870922;75;20209;-38
2020/12/23 10:39:13;;;;;;;;;;;;;;;-4.26;79.76;101829.81;1848090;75;20431;-38
2020/12/23 10:41:41;;;;;;;;;;;;;;;-4.29;79.95;101829.64;1868895;75;20174;-39
2020/12/23 10:44:09;;;;;;;;;;;;;;;-4.32;79.95;101814.08;1871971;75;20597;-39
2020/12/23 10:46:37;;;;;;;;;;;;;;;-4.38;80.12;101811.16;1869654;75;20185;-39
2020/12/23 10:49:05;;;;;;;;;;;;;;;-4.46;80.18;101811.96;1870545;75;20178;-40
2020/12/23 10:51:35;;;;;;;;;;;;;;;-4.56;80.28;101813.48;1870208;75;20195;-40
2020/12/23 10:54:03;;;;;;;;;;;;;;;-4.58;80.55;101812.09;1872505;75;20393;-38
2020/12/23 10:56:31;;;;;;;;;;;;;;;-4.58;80.70;101809.94;1867976;75;20445;-39
2020/12/23 10:59:00;;;;;;;;;;;;;;;-4.61;80.82;101810.65;1867285;75;20335;-40
2020/12/23 11:01:28;;;;;;;;;;;;;;;-4.62;81.01;101805.43;1868325;75;20318;-39
2020/12/23 11:03:56;;;;;;;;;;;;;;;-4.58;81.22;101801.86;1872047;75;20226;-38
2020/12/23 11:06:24;;;;;;;;;;;;;;;-4.52;81.34;101805.19;1870161;75;20490;-39
2020/12/23 11:08:53;;;;;;;;;;;;;;;-4.46;81.38;101798.77;1869837;75;20321;-38
2020/12/23 11:11:22;;;;;;;;;;;;;;;-4.38;81.39;101799.24;1870937;75;20312;-39
2020/12/23 11:13:50;;;;;;;;;;;;;;;-4.29;81.56;101793.80;1869995;75;20178;-40
2020/12/23 11:16:19;;;;;;;;;;;;;;;-4.12;81.60;101794.02;1872061;75;20265;-40
2020/12/23 11:18:48;;;;;;;;;;;;;;;-3.95;81.41;101792.47;1838691;75;20709;-41
2020/12/23 11:21:16;;;;;;;;;;;;;;;-3.86;81.03;101794.27;1866774;75;20190;-38
2020/12/23 11:23:44;;;;;;;;;;;;;;;-3.79;80.78;101789.10;1870897;75;20632;-40
2020/12/23 11:26:17;;;;;;;;;;;;;;;-3.82;80.24;101792.39;1853298;75;20213;-39
2020/12/23 11:28:47;;;;;;;;;;;;;;;-3.85;80.08;101789.63;1827033;75;20593;-40
2020/12/23 11:31:15;;;;;;;;;;;;;;;-3.87;79.89;101791.64;1869457;75;20205;-39
2020/12/23 11:33:42;;;;;;;;;;;;;;;-3.94;79.78;101795.91;1872192;75;20221;-40
2020/12/23 11:36:10;;;;;;;;;;;;;;;-4.00;79.71;101791.72;1871623;75;20181;-39
2020/12/23 11:38:38;;;;;;;;;;;;;;;-4.02;79.74;101791.62;1836254;75;20175;-39
2020/12/23 11:41:06;;;;;;;;;;;;;;;-4.03;79.79;101792.01;1868692;75;20189;-40
2020/12/23 11:43:37;;;;;;;;;;;;;;;-4.02;79.93;101798.91;1868822;75;20164;-40
2020/12/23 11:46:06;;;;;;;;;;;;;;;-4.01;79.97;101799.79;1868636;75;20209;-39
2020/12/23 11:48:34;;;;;;;;;;;;;;;-4.02;80.04;101793.78;1869590;75;20319;-39
2020/12/23 11:51:02;;;;;;;;;;;;;;;-4.01;80.05;101802.35;1868581;75;20494;-39
2020/12/23 11:53:34;;;;;;;;;;;;;;;-4.06;80.02;101796.94;1871215;75;20304;-40
2020/12/23 11:56:03;;;;;;;;;;;;;;;-4.16;79.97;101802.31;1872420;75;20199;-39
2020/12/23 11:58:32;;;;;;;;;;;;;;;-4.20;80.14;101802.91;1867907;75;20223;-39
2020/12/23 12:00:59;;;;;;;;;;;;;;;-4.19;80.40;101798.67;1868566;75;20318;-46
2020/12/23 12:03:30;;;;;;;;;;;;;;;-4.21;80.40;101791.31;1866134;75;20207;-39
2020/12/23 12:05:58;;;;;;;;;;;;;;;-4.24;80.53;101793.67;1868800;75;20280;-39
2020/12/23 12:08:29;;;;;;;;;;;;;;;-4.22;80.68;101792.11;1834707;75;20178;-40
2020/12/23 12:10:57;;;;;;;;;;;;;;;-4.24;80.79;101797.52;1872822;75;20170;-39
2020/12/23 12:13:26;;;;;;;;;;;;;;;-4.23;80.90;101796.73;1868632;75;20746;-38
2020/12/23 12:15:59;;;;;;;;;;;;;;;-4.24;80.95;101797.52;1813619;75;20253;-39
2020/12/23 12:18:28;;;;;;;;;;;;;;;-4.22;81.11;101802.34;1869432;75;20230;-40
2020/12/23 12:21:00;;;;;;;;;;;;;;;-4.19;81.21;101799.55;1774897;75;20294;-40
2020/12/23 12:23:27;;;;;;;;;;;;;;;-4.16;81.20;101805.27;1875569;75;20211;-37
2020/12/23 12:25:55;;;;;;;;;;;;;;;-4.16;81.22;101804.88;1870975;75;20170;-39
2020/12/23 12:28:23;;;;;;;;;;;;;;;-4.14;81.25;101804.58;1870740;75;20278;-40
2020/12/23 12:30:50;;;;;;;;;;;;;;;-4.13;81.27;101810.55;1872224;75;20189;-39
2020/12/23 12:33:18;;;;;;;;;;;;;;;-4.13;81.29;101802.48;1875188;75;20154;-39
2020/12/23 12:35:46;;;;;;;;;;;;;;;-4.17;81.18;101805.66;1843701;75;20168;-39
2020/12/23 12:38:14;;;;;;;;;;;;;;;-4.30;81.29;101803.16;1868871;75;20206;-39
2020/12/23 12:40:43;;;;;;;;;;;;;;;-4.35;81.59;101802.00;1874337;75;20201;-39
2020/12/23 12:43:11;;;;;;;;;;;;;;;-4.37;81.78;101788.61;1868477;75;20182;-39
2020/12/23 12:45:40;;;;;;;;;;;;;;;-4.44;81.86;101786.08;1869171;75;20205;-38
2020/12/23 12:48:10;;;;;;;;;;;;;;;-4.53;82.04;101794.06;1840748;75;20272;-41
2020/12/23 12:50:38;;;;;;;;;;;;;;;-4.59;82.32;101796.25;1870115;75;20163;-38
2020/12/23 12:53:06;;;;;;;;;;;;;;;-4.61;82.56;101792.73;1825751;77;20146;-39